Victoria International Airport
CYYJ : now visible

Airfield :











YOU CAN JOIN US ON...

 
LOGIN :

Register | Disclaimer

   EN    FR    IT 

 









Legend :    VFR   Marginal VFR   IFR   Intensive IFR   Very Intensive IFR
Visi :
Ceiling :
>= 8 km
>= 3000ft
5 to 8 km
1000 to 3000 ft
1500m to 5 km
500 to 1000 ft
800 to 1500m
200 to 500 ft
< 800m
< 200 ft
Symbols :   Thunderstorms  Fog  Heavy snow  Heavy precipitations  Wind > 20 kt






- Airport Elevation : 63 ft
- IATA code : YYJ


CYYJ - Victoria International

CURRENT METAR :
  • 170600Z 23003KT 20SM BKN120 OVC150 12/08 A2989 RMK AC5AC3 SLP125

EXPIRED METARs :
  • 170500Z 00000KT 20SM OVC150 12/07 A2991 RMK AC8 SLP131
  • 170400Z 26003KT 20SM OVC160 13/06 A2994 RMK AC8 SLP140

TAF TAF CYYJ
Valid from the 17 at 06:00 until the 18 at 06:00 UTC


170540Z 1706/1806 VRB03KT P6SM OVC140
FM170900 VRB03KT P6SM OVC080
TEMPO 1709/1712 P6SM -RA OVC060
FM171200 12005KT P6SM -RA SCT008 OVC025
TEMPO 1712/1804 3SM -RA BR BKN008 OVC015
BECMG 1716/1718 15015G25KT
FM180400 24012G22KT P6SM -SHRA SCT020 OVC060 RMK NXT FCST BY 171200Z
CZVR FIR / North America



MET'MAP, your aeronautical weather chart ! - Copyright ORBIFLY December 2007 - Disclaimer

ORBIFLY MET'MAP TEAM :

Programming & Development : Alexandra Zaïnal
Concept & original design : Baudouin d'Aumeries
Assistance for programming : Marc-Olivier Méhu
Technical & hardware support : Manuel Goepfert

Contact : metmap@orbifly.com




SOURCES & CREDITS :

   NOAA       Earth
Advisory